Time;durP1;ratioP1;P1;durP2;ratioP2;P2;SDS_P1;SDS_P2;PMS_P1;PMS_P2;Temp;Humidity;BMP_temperature;BMP_pressure;BME280_temperature;BME280_humidity;BME280_pressure;Samples;Min_cycle;Max_cycle;Signal;HPM_P1;HPM_P2
2023/01/27 00:00:14;;;;;;;15.50;5.25;;;-1.00;99.90;;;;;;5065674;28;20028;-30
2023/01/27 00:02:41;;;;;;;7.47;5.22;;;-1.00;99.90;;;;;;5062991;28;20135;-30
2023/01/27 00:05:08;;;;;;;9.25;3.80;;;-1.00;99.90;;;;;;5069621;28;20050;-30
2023/01/27 00:07:34;;;;;;;9.88;6.13;;;-0.90;99.90;;;;;;5076459;28;20036;-33
2023/01/27 00:09:59;;;;;;;15.90;6.45;;;-0.90;99.90;;;;;;5063549;28;20047;-31
2023/01/27 00:15:12;;;;;;;8.75;4.93;;;-1.00;99.90;;;;;;5066270;28;20043;-33
2023/01/27 00:17:38;;;;;;;9.02;4.50;;;-1.00;99.90;;;;;;5068052;28;20485;-30
2023/01/27 00:20:05;;;;;;;12.65;6.40;;;-0.90;99.90;;;;;;5066841;28;20115;-30
2023/01/27 00:25:15;;;;;;;9.40;4.57;;;-1.00;99.90;;;;;;5069005;28;20166;-32
2023/01/27 00:27:41;;;;;;;8.38;4.40;;;-0.90;99.90;;;;;;5062051;28;20557;-33
2023/01/27 00:30:08;;;;;;;12.13;5.35;;;-1.00;99.90;;;;;;5065229;28;20043;-32
2023/01/27 00:35:17;;;;;;;14.10;5.43;;;-1.00;99.90;;;;;;5081575;28;20114;-29
2023/01/27 00:37:45;;;;;;;12.35;5.93;;;-1.00;99.90;;;;;;5085761;28;20151;-29
2023/01/27 00:40:12;;;;;;;10.90;4.55;;;-1.00;99.90;;;;;;5073616;28;20040;-30
2023/01/27 00:42:38;;;;;;;11.38;6.05;;;-1.00;99.90;;;;;;5071892;28;20402;-30
2023/01/27 00:47:49;;;;;;;9.75;4.25;;;-0.80;99.90;;;;;;5070490;28;20061;-34
2023/01/27 00:50:15;;;;;;;8.15;4.78;;;-0.70;99.90;;;;;;5065634;28;20036;-30
2023/01/27 00:52:41;;;;;;;9.13;5.47;;;-0.70;99.90;;;;;;5072549;28;20493;-30
2023/01/27 00:55:09;;;;;;;7.20;4.18;;;-0.70;99.90;;;;;;5078927;28;20028;-30
2023/01/27 00:57:35;;;;;;;13.35;6.28;;;-0.60;99.90;;;;;;5078563;28;20031;-34
2023/01/27 01:00:02;;;;;;;10.07;4.63;;;-0.60;99.90;;;;;;5076788;28;20040;-29
2023/01/27 01:02:28;;;;;;;9.70;5.00;;;-0.60;99.90;;;;;;5087594;28;20058;-31
2023/01/27 01:04:53;;;;;;;9.07;4.97;;;-0.60;99.90;;;;;;5085465;28;20051;-31
2023/01/27 01:07:19;;;;;;;10.02;4.70;;;-0.60;99.90;;;;;;5072386;28;20469;-29
2023/01/27 01:09:44;;;;;;;8.80;5.85;;;-0.80;99.90;;;;;;5073680;28;20424;-30
2023/01/27 01:12:10;;;;;;;8.10;5.15;;;-0.80;99.90;;;;;;5078777;28;20032;-30
2023/01/27 01:14:36;;;;;;;10.18;4.65;;;-0.90;99.90;;;;;;5071766;28;20036;-34
2023/01/27 01:17:01;;;;;;;13.98;5.15;;;-0.90;99.90;;;;;;5077722;28;20542;-29
2023/01/27 01:19:29;;;;;;;11.25;6.43;;;-1.00;99.90;;;;;;5072954;28;20494;-30
2023/01/27 01:21:54;;;;;;;12.02;6.85;;;-1.00;99.90;;;;;;5072805;28;20042;-31
2023/01/27 01:24:20;;;;;;;17.05;6.90;;;-1.00;99.90;;;;;;5081148;28;20025;-30
2023/01/27 01:26:46;;;;;;;12.38;6.25;;;-1.00;99.90;;;;;;5061599;28;20115;-33
2023/01/27 01:29:11;;;;;;;15.10;6.18;;;-1.00;99.90;;;;;;5081459;28;20032;-29
2023/01/27 01:31:37;;;;;;;16.25;5.82;;;-1.00;99.90;;;;;;5075093;28;20548;-29
2023/01/27 01:34:02;;;;;;;13.68;5.18;;;-1.00;99.90;;;;;;5076913;28;20119;-32
2023/01/27 01:36:28;;;;;;;15.00;6.63;;;-1.00;99.90;;;;;;5083692;28;20544;-30
2023/01/27 01:38:57;;;;;;;20.90;7.50;;;-1.00;99.90;;;;;;5086993;28;20127;-29
2023/01/27 01:41:24;;;;;;;13.27;5.80;;;-1.10;99.90;;;;;;5083771;28;20469;-29
2023/01/27 01:43:50;;;;;;;11.35;5.85;;;-1.00;99.90;;;;;;5080360;28;20078;-30
2023/01/27 01:46:16;;;;;;;15.52;6.22;;;-1.00;99.90;;;;;;5082034;28;20098;-33
2023/01/27 01:48:51;;;;;;;11.13;5.75;;;-1.00;99.90;;;;;;5076203;28;21050;-30
2023/01/27 01:51:26;;;;;;;13.25;5.40;;;-1.00;99.90;;;;;;5076547;28;20028;-33
2023/01/27 01:54:02;;;;;;;9.13;4.72;;;-1.00;99.90;;;;;;5080504;28;20048;-31
2023/01/27 01:56:34;;;;;;;12.13;4.82;;;-1.00;99.90;;;;;;5085178;28;20034;-30
2023/01/27 01:59:05;;;;;;;14.75;5.13;;;-1.00;99.90;;;;;;5083152;28;20055;-30
2023/01/27 02:01:31;;;;;;;12.55;6.10;;;-1.00;99.90;;;;;;5075182;28;20034;-30
2023/01/27 02:04:01;;;;;;;12.75;6.22;;;-1.00;99.90;;;;;;5078982;28;20162;-31
2023/01/27 02:06:27;;;;;;;12.55;6.13;;;-1.00;99.90;;;;;;5067184;28;20618;-31
2023/01/27 02:08:53;;;;;;;10.90;4.97;;;-1.00;99.90;;;;;;5065207;28;20048;-30
2023/01/27 02:11:19;;;;;;;16.27;6.22;;;-1.10;99.90;;;;;;5053043;28;20040;-33
2023/01/27 02:13:45;;;;;;;15.68;6.00;;;-1.00;99.90;;;;;;5037323;28;20541;-33
2023/01/27 02:16:11;;;;;;;11.48;4.38;;;-1.00;99.90;;;;;;5057057;28;20481;-34
2023/01/27 02:18:41;;;;;;;10.13;5.18;;;-1.10;99.90;;;;;;5055607;28;20057;-34
2023/01/27 02:21:07;;;;;;;12.15;5.82;;;-1.00;99.90;;;;;;5057314;28;20023;-33
2023/01/27 02:24:05;;;;;;;12.75;5.82;;;-1.00;99.90;;;;;;5063457;28;20024;-30
2023/01/27 02:26:32;;;;;;;13.75;5.45;;;-1.00;99.90;;;;;;5043120;28;20074;-32
2023/01/27 02:29:02;;;;;;;11.07;5.38;;;-1.00;99.90;;;;;;5064101;28;20032;-31
2023/01/27 02:31:28;;;;;;;10.65;5.28;;;-1.00;99.90;;;;;;5060500;28;20119;-36
2023/01/27 02:33:58;;;;;;;14.82;6.57;;;-1.00;99.90;;;;;;5054480;28;20084;-36
2023/01/27 02:36:26;;;;;;;11.27;5.55;;;-1.00;99.90;;;;;;5063165;28;20074;-33
2023/01/27 02:38:55;;;;;;;12.60;5.22;;;-1.00;99.90;;;;;;5066303;28;20885;-30
2023/01/27 02:41:34;;;;;;;17.73;5.70;;;-1.00;99.90;;;;;;5056243;28;20027;-32
2023/01/27 02:44:00;;;;;;;12.45;6.03;;;-1.00;99.90;;;;;;5039788;28;20028;-37
2023/01/27 02:46:25;;;;;;;15.30;7.07;;;-1.00;99.90;;;;;;5062364;28;20039;-32
2023/01/27 02:48:51;;;;;;;12.73;4.82;;;-1.00;99.90;;;;;;5061646;28;20036;-33
2023/01/27 02:51:17;;;;;;;16.60;6.85;;;-1.00;99.90;;;;;;5064331;28;20808;-30
2023/01/27 02:53:43;;;;;;;11.38;5.05;;;-1.00;99.90;;;;;;5059305;28;21045;-33
2023/01/27 02:56:09;;;;;;;14.23;5.80;;;-1.00;99.90;;;;;;5061608;28;20069;-31
2023/01/27 02:58:35;;;;;;;11.73;5.05;;;-1.00;99.90;;;;;;5062634;28;20481;-30
2023/01/27 03:01:00;;;;;;;7.97;5.85;;;-1.00;99.90;;;;;;5058723;28;20040;-33
2023/01/27 03:03:26;;;;;;;11.50;6.03;;;-1.00;99.90;;;;;;5058427;28;20028;-34
2023/01/27 03:05:51;;;;;;;16.63;6.82;;;-1.00;99.90;;;;;;5060579;28;20059;-31
2023/01/27 03:08:18;;;;;;;14.73;5.80;;;-1.00;99.90;;;;;;5062407;28;20486;-32
2023/01/27 03:10:48;;;;;;;12.73;5.43;;;-1.00;99.90;;;;;;5063816;28;20027;-30
2023/01/27 03:13:14;;;;;;;17.30;6.72;;;-1.00;99.90;;;;;;5060393;28;20059;-30
2023/01/27 03:18:23;;;;;;;16.55;6.50;;;-1.00;99.90;;;;;;5063085;28;20059;-37
2023/01/27 03:20:49;;;;;;;15.60;6.60;;;-1.10;99.90;;;;;;5063396;28;20028;-31
2023/01/27 03:23:17;;;;;;;15.98;6.43;;;-1.10;99.90;;;;;;5059149;28;20034;-34
2023/01/27 03:25:46;;;;;;;10.45;5.25;;;-1.10;99.90;;;;;;5038586;28;20032;-32
2023/01/27 03:28:12;;;;;;;;;;;-1.10;99.90;;;;;;5065945;28;20028;-35
2023/01/27 03:30:38;;;;;;;9.40;5.35;;;-1.10;99.90;;;;;;5059768;28;20027;-33
2023/01/27 03:33:05;;;;;;;9.80;5.55;;;-1.10;99.90;;;;;;5056894;28;20816;-35
2023/01/27 03:35:47;;;;;;;16.30;7.35;;;-1.10;99.90;;;;;;5056621;28;20028;-31
2023/01/27 03:46:31;;;;;;;16.25;7.60;;;-1.10;99.90;;;;;;5056937;28;20064;-33
2023/01/27 03:48:58;;;;;;;11.50;5.00;;;-1.10;99.90;;;;;;5058706;28;20569;-33
2023/01/27 03:51:25;;;;;;;10.05;4.97;;;-1.10;99.90;;;;;;5060913;28;20070;-32
2023/01/27 03:53:51;;;;;;;13.18;6.57;;;-1.10;99.90;;;;;;5061029;28;20032;-33
2023/01/27 03:56:19;;;;;;;11.80;6.18;;;-1.10;99.90;;;;;;5036169;28;20028;-32
2023/01/27 03:58:44;;;;;;;13.95;6.57;;;-1.10;99.90;;;;;;5054129;28;20967;-32
2023/01/27 04:01:16;;;;;;;15.90;7.72;;;-1.10;99.90;;;;;;5037552;28;20064;-33
2023/01/27 04:09:19;;;;;;;12.45;5.95;;;-1.20;99.90;;;;;;5058989;28;20762;-33
2023/01/27 04:11:54;;;;;;;13.15;6.20;;;-1.20;99.90;;;;;;5060713;28;20112;-35
2023/01/27 04:14:21;;;;;;;11.23;5.55;;;-1.20;99.90;;;;;;5060853;28;20054;-29
2023/01/27 04:16:47;;;;;;;17.17;7.35;;;-1.20;99.90;;;;;;5061616;28;20032;-33
2023/01/27 04:19:13;;;;;;;12.43;6.15;;;-1.10;99.90;;;;;;5061371;28;20169;-30
2023/01/27 04:21:40;;;;;;;13.60;6.05;;;-1.10;99.90;;;;;;5065975;28;21449;-32
2023/01/27 04:24:15;;;;;;;15.82;6.55;;;-1.10;99.90;;;;;;5065567;28;20584;-35
2023/01/27 04:26:44;;;;;;;17.58;7.22;;;-1.10;99.90;;;;;;5063279;28;20047;-36
2023/01/27 04:29:12;;;;;;;15.75;7.63;;;-1.10;99.90;;;;;;5057189;28;20031;-32
2023/01/27 04:31:38;;;;;;;12.15;5.70;;;-1.20;99.90;;;;;;5065764;28;20063;-32
2023/01/27 04:34:04;;;;;;;14.05;6.28;;;-1.20;99.90;;;;;;5064968;28;20039;-35
2023/01/27 04:36:29;;;;;;;13.35;6.60;;;-1.20;99.90;;;;;;5058029;28;21100;-33
2023/01/27 04:38:55;;;;;;;12.90;5.65;;;-1.20;99.90;;;;;;5068367;28;20487;-30
2023/01/27 04:41:20;;;;;;;13.20;6.38;;;-1.10;99.90;;;;;;5067556;28;20032;-30
2023/01/27 04:43:46;;;;;;;16.55;6.10;;;-1.10;99.90;;;;;;5074433;28;20050;-32
2023/01/27 04:46:12;;;;;;;13.20;6.50;;;-1.10;99.90;;;;;;5070420;28;20020;-30
2023/01/27 04:48:37;;;;;;;9.30;5.07;;;-1.20;99.90;;;;;;5071389;28;20024;-34
2023/01/27 04:51:03;;;;;;;15.90;6.53;;;-1.20;99.90;;;;;;5075657;28;20032;-30
2023/01/27 04:53:28;;;;;;;14.38;6.90;;;-1.20;99.90;;;;;;5081823;28;20496;-31
2023/01/27 04:56:01;;;;;;;12.18;5.90;;;-1.20;99.90;;;;;;5074266;28;20035;-32
2023/01/27 04:58:27;;;;;;;11.90;6.30;;;-1.20;99.90;;;;;;5075261;28;20077;-33
2023/01/27 05:00:52;;;;;;;14.48;7.05;;;-1.20;99.90;;;;;;5085580;28;20040;-31
2023/01/27 05:03:18;;;;;;;13.98;6.47;;;-1.20;99.90;;;;;;5076504;28;20401;-31
2023/01/27 05:05:43;;;;;;;17.15;6.75;;;-1.20;99.90;;;;;;5069674;28;20062;-30
2023/01/27 05:08:09;;;;;;;14.13;5.75;;;-1.20;99.90;;;;;;5081435;28;20075;-30
2023/01/27 05:10:36;;;;;;;9.70;5.55;;;-1.10;99.90;;;;;;5087190;28;20051;-32
2023/01/27 05:13:02;;;;;;;11.82;6.25;;;-1.20;99.90;;;;;;5083972;28;20035;-29
2023/01/27 05:15:28;;;;;;;13.27;6.75;;;-1.20;99.90;;;;;;5084849;28;20020;-31
2023/01/27 05:17:54;;;;;;;11.52;5.93;;;-1.20;99.90;;;;;;5082025;28;20131;-30
2023/01/27 05:20:20;;;;;;;11.05;5.82;;;-1.20;99.90;;;;;;5075987;28;20389;-30
2023/01/27 05:22:46;;;;;;;11.43;5.78;;;-1.20;99.90;;;;;;5059628;28;20027;-32
2023/01/27 05:25:11;;;;;;;9.57;5.00;;;-1.20;99.90;;;;;;5073380;28;20028;-32
2023/01/27 05:27:37;;;;;;;10.13;6.60;;;-1.20;99.90;;;;;;5083203;28;20077;-31
2023/01/27 05:30:03;;;;;;;10.27;5.65;;;-1.20;99.90;;;;;;5085757;28;20473;-34
2023/01/27 05:32:29;;;;;;;13.23;5.13;;;-1.20;99.90;;;;;;5079818;28;20051;-30
2023/01/27 05:34:55;;;;;;;13.48;5.50;;;-1.10;99.90;;;;;;5076057;28;20033;-32
2023/01/27 05:37:20;;;;;;;11.57;5.05;;;-1.10;99.90;;;;;;5077343;28;20028;-31
2023/01/27 05:39:46;;;;;;;10.65;5.05;;;-1.10;99.90;;;;;;5089542;28;20024;-31
2023/01/27 05:42:11;;;;;;;10.32;5.82;;;-1.10;99.90;;;;;;5067028;28;20025;-31
2023/01/27 05:44:37;;;;;;;11.23;5.35;;;-1.10;99.90;;;;;;5061637;28;20528;-34
2023/01/27 05:47:02;;;;;;;8.00;4.65;;;-1.10;99.90;;;;;;5075542;28;20023;-33
2023/01/27 05:49:28;;;;;;;12.90;5.68;;;-1.10;99.90;;;;;;5077677;28;20028;-34
2023/01/27 05:51:54;;;;;;;8.48;4.60;;;-1.10;99.90;;;;;;5071485;28;20115;-31
2023/01/27 05:54:19;;;;;;;12.20;4.93;;;-1.10;99.90;;;;;;5077972;28;20149;-31
2023/01/27 05:56:45;;;;;;;12.38;5.15;;;-1.10;99.90;;;;;;5068764;28;20067;-31
2023/01/27 05:59:11;;;;;;;12.68;5.50;;;-1.10;99.90;;;;;;5069446;28;20492;-31
2023/01/27 06:01:36;;;;;;;9.05;5.03;;;-1.10;99.90;;;;;;5059681;28;20036;-33
2023/01/27 06:04:03;;;;;;;12.02;5.57;;;-1.20;99.90;;;;;;5065088;28;20031;-33
2023/01/27 06:06:30;;;;;;;9.80;5.72;;;-1.10;99.90;;;;;;5059998;28;20854;-33
2023/01/27 06:08:57;;;;;;;9.77;4.47;;;-1.10;99.90;;;;;;5068081;28;20130;-32
2023/01/27 06:11:23;;;;;;;6.82;3.90;;;-1.10;99.90;;;;;;5070869;28;20561;-36
2023/01/27 06:13:50;;;;;;;10.57;4.68;;;-1.10;99.90;;;;;;5072745;28;20085;-33
2023/01/27 06:16:17;;;;;;;11.10;5.35;;;-1.20;99.90;;;;;;5072155;28;20032;-36
2023/01/27 06:18:43;;;;;;;10.48;4.72;;;-1.10;99.90;;;;;;5067280;28;20043;-30
2023/01/27 06:21:11;;;;;;;9.45;5.47;;;-1.10;99.90;;;;;;5072049;28;20028;-32
2023/01/27 06:23:38;;;;;;;10.02;5.10;;;-1.20;99.90;;;;;;5062773;28;20028;-31
2023/01/27 06:26:08;;;;;;;12.55;5.70;;;-1.10;99.90;;;;;;5058889;28;20461;-33
2023/01/27 06:28:34;;;;;;;10.88;5.45;;;-1.10;99.90;;;;;;5064366;28;20024;-33
2023/01/27 06:31:15;;;;;;;9.85;5.07;;;-1.10;99.90;;;;;;5062781;28;20291;-30
2023/01/27 06:33:41;;;;;;;11.18;5.10;;;-1.10;99.90;;;;;;5071817;28;20024;-34
2023/01/27 06:36:09;;;;;;;11.55;4.55;;;-1.10;99.90;;;;;;5061969;28;20037;-34
2023/01/27 06:38:36;;;;;;;12.30;6.10;;;-1.10;99.90;;;;;;5066293;28;20699;-33
2023/01/27 06:41:01;;;;;;;13.13;6.10;;;-1.10;99.90;;;;;;5062451;28;20389;-33
2023/01/27 06:43:27;;;;;;;12.55;5.43;;;-1.10;99.90;;;;;;5075579;28;20031;-33
2023/01/27 06:45:53;;;;;;;10.20;6.18;;;-1.10;99.90;;;;;;5075108;28;20359;-30
2023/01/27 06:48:19;;;;;;;7.57;4.97;;;-1.10;99.90;;;;;;5070841;28;20078;-31
2023/01/27 06:50:44;;;;;;;9.75;5.68;;;-1.10;99.90;;;;;;5076405;28;20032;-32
2023/01/27 06:53:10;;;;;;;9.10;4.93;;;-1.10;99.90;;;;;;5071331;28;20452;-31
2023/01/27 06:55:40;;;;;;;8.10;4.68;;;-1.10;99.90;;;;;;5079417;28;20116;-32
2023/01/27 06:58:07;;;;;;;11.55;5.60;;;-1.10;99.90;;;;;;5071572;28;20071;-32
2023/01/27 07:00:33;;;;;;;9.35;5.05;;;-1.00;99.90;;;;;;5063828;28;21334;-33
2023/01/27 07:02:59;;;;;;;13.18;5.22;;;-1.00;99.90;;;;;;5070749;28;20052;-32
2023/01/27 07:05:24;;;;;;;15.65;6.65;;;-1.00;99.90;;;;;;5063258;28;20060;-29
2023/01/27 07:07:50;;;;;;;10.45;5.80;;;-1.10;99.90;;;;;;5081343;28;20040;-30
2023/01/27 07:10:16;;;;;;;7.13;4.63;;;-1.10;99.90;;;;;;5082647;28;20485;-33
2023/01/27 07:12:42;;;;;;;12.02;5.07;;;-1.00;99.90;;;;;;5077917;28;20040;-36
2023/01/27 07:15:08;;;;;;;8.98;5.60;;;-1.00;99.90;;;;;;5079739;28;20058;-30
2023/01/27 07:17:34;;;;;;;11.45;5.28;;;-1.00;99.90;;;;;;5082347;28;20082;-29
2023/01/27 07:20:00;;;;;;;11.80;5.60;;;-1.10;99.90;;;;;;5080342;28;20015;-33
2023/01/27 07:22:26;;;;;;;10.25;5.15;;;-1.00;99.90;;;;;;5065677;28;20078;-29
2023/01/27 07:24:51;;;;;;;12.20;5.55;;;-1.10;99.90;;;;;;5080562;28;20477;-31
2023/01/27 07:27:17;;;;;;;13.88;6.05;;;-1.10;99.90;;;;;;5081561;28;20032;-30
2023/01/27 07:29:43;;;;;;;11.32;5.50;;;-1.10;99.90;;;;;;5079791;28;20028;-30
2023/01/27 07:32:08;;;;;;;10.43;5.57;;;-1.10;99.90;;;;;;5075605;28;20120;-31
2023/01/27 07:34:34;;;;;;;9.98;5.05;;;-1.00;99.90;;;;;;5082248;28;20085;-30
2023/01/27 07:37:00;;;;;;;11.20;5.78;;;-1.10;99.90;;;;;;5077737;28;20027;-30
2023/01/27 07:39:26;;;;;;;12.00;5.57;;;-1.10;99.90;;;;;;5083497;28;20160;-30
2023/01/27 07:41:52;;;;;;;14.15;5.60;;;-1.10;99.90;;;;;;5078409;28;20016;-33
2023/01/27 07:44:18;;;;;;;13.80;5.85;;;-1.10;99.90;;;;;;5065891;28;20032;-31
2023/01/27 07:46:43;;;;;;;13.13;5.68;;;-1.00;99.90;;;;;;5077681;28;20024;-29
2023/01/27 07:49:11;;;;;;;10.07;4.15;;;-1.00;99.90;;;;;;5080904;28;20085;-29
2023/01/27 07:51:37;;;;;;;11.93;6.32;;;-1.00;99.90;;;;;;5083455;28;20070;-31
2023/01/27 07:54:03;;;;;;;13.88;5.72;;;-1.00;99.90;;;;;;5083186;28;20032;-32
2023/01/27 07:56:29;;;;;;;10.85;5.28;;;-1.00;99.90;;;;;;5086399;28;20460;-31
2023/01/27 07:58:54;;;;;;;11.80;5.65;;;-1.00;99.90;;;;;;5078436;28;20035;-31
2023/01/27 08:01:20;;;;;;;15.13;5.70;;;-0.90;99.90;;;;;;5086779;28;20053;-31
2023/01/27 08:03:46;;;;;;;14.35;7.50;;;-0.90;99.90;;;;;;5086842;28;20377;-30
2023/01/27 08:06:12;;;;;;;17.67;5.68;;;-0.90;99.90;;;;;;5085360;28;20023;-30
2023/01/27 08:08:37;;;;;;;12.10;5.28;;;-0.90;99.90;;;;;;5082788;28;20353;-32
2023/01/27 08:11:09;;;;;;;10.07;5.53;;;-0.90;99.90;;;;;;5083346;28;20533;-30
2023/01/27 08:13:35;;;;;;;13.30;6.78;;;-0.90;99.90;;;;;;5079402;28;20308;-31
2023/01/27 08:16:04;;;;;;;15.35;7.00;;;-0.90;99.90;;;;;;5085627;28;20039;-30
2023/01/27 08:18:32;;;;;;;14.65;6.32;;;-0.90;99.90;;;;;;5077845;28;20021;-30
2023/01/27 08:20:59;;;;;;;17.42;8.55;;;-0.90;99.90;;;;;;5087605;28;20449;-32
2023/01/27 08:23:24;;;;;;;20.42;8.30;;;-0.90;99.90;;;;;;5085272;28;20092;-32
2023/01/27 08:25:56;;;;;;;19.70;9.50;;;-0.90;99.90;;;;;;5089981;28;20099;-30
2023/01/27 08:28:22;;;;;;;20.58;8.48;;;-1.00;99.90;;;;;;5082636;28;20016;-29
2023/01/27 08:30:51;;;;;;;24.13;9.98;;;-0.90;99.90;;;;;;5083985;28;20025;-30
2023/01/27 08:33:22;;;;;;;21.67;8.35;;;-0.90;99.90;;;;;;5082976;28;20023;-30
2023/01/27 08:35:49;;;;;;;19.98;8.77;;;-0.90;99.90;;;;;;5083332;28;20035;-31
2023/01/27 08:38:17;;;;;;;21.00;8.77;;;-0.90;99.90;;;;;;5088846;28;20039;-30
2023/01/27 08:40:45;;;;;;;22.48;9.48;;;-0.90;99.90;;;;;;5067668;28;20028;-31
2023/01/27 08:43:12;;;;;;;18.10;7.53;;;-0.90;99.90;;;;;;5062699;28;20370;-30
2023/01/27 08:45:37;;;;;;;26.50;8.52;;;-0.90;99.90;;;;;;5092360;28;20178;-31
2023/01/27 08:48:07;;;;;;;19.42;7.97;;;-0.90;99.90;;;;;;5084594;28;20739;-32
2023/01/27 08:50:32;;;;;;;16.95;8.18;;;-0.90;99.90;;;;;;5086577;28;20412;-30
2023/01/27 08:52:59;;;;;;;23.13;10.93;;;-0.90;99.90;;;;;;5085534;28;20043;-29
2023/01/27 08:55:30;;;;;;;21.33;8.73;;;-0.80;99.90;;;;;;5080477;28;20070;-34
2023/01/27 08:57:55;;;;;;;21.05;9.25;;;-0.80;99.90;;;;;;5066010;28;20043;-29
2023/01/27 09:00:21;;;;;;;19.23;8.60;;;-0.80;99.90;;;;;;5068152;28;20396;-33
2023/01/27 09:02:49;;;;;;;19.73;8.48;;;-0.80;99.90;;;;;;5072786;28;20026;-32
2023/01/27 09:05:16;;;;;;;17.85;8.18;;;-0.90;99.90;;;;;;5084280;28;20036;-29
2023/01/27 09:07:43;;;;;;;14.50;7.65;;;-0.90;99.90;;;;;;5086683;28;20072;-29
2023/01/27 09:10:09;;;;;;;20.25;8.43;;;-0.90;99.90;;;;;;5090452;28;20033;-29
2023/01/27 09:12:35;;;;;;;21.52;7.68;;;-0.90;99.90;;;;;;5083576;28;20028;-29
2023/01/27 09:15:00;;;;;;;18.60;8.63;;;-0.90;99.90;;;;;;5082340;28;20046;-30
2023/01/27 09:17:26;;;;;;;17.45;7.20;;;-0.90;99.90;;;;;;5089505;28;20051;-30
2023/01/27 09:19:52;;;;;;;20.80;8.60;;;-0.90;99.90;;;;;;5084524;28;20051;-31
2023/01/27 09:22:17;;;;;;;20.10;9.38;;;-0.90;99.90;;;;;;5081664;28;20028;-33
2023/01/27 09:24:43;;;;;;;20.80;7.88;;;-1.00;99.90;;;;;;5079012;28;20067;-30
2023/01/27 09:27:09;;;;;;;18.27;8.00;;;-1.00;99.90;;;;;;5080600;28;20043;-30
2023/01/27 09:29:35;;;;;;;15.80;7.45;;;-1.00;99.90;;;;;;5087403;28;20587;-30
2023/01/27 09:32:01;;;;;;;15.98;6.80;;;-1.00;99.90;;;;;;5079183;28;20523;-31
2023/01/27 09:34:27;;;;;;;19.42;8.07;;;-0.90;99.90;;;;;;5086206;28;20020;-30
2023/01/27 09:37:08;;;;;;;15.50;6.78;;;-0.90;99.90;;;;;;5079515;28;20040;-30
2023/01/27 09:39:40;;;;;;;27.23;10.60;;;-0.90;99.90;;;;;;5084509;28;20056;-29
2023/01/27 09:42:17;;;;;;;16.80;8.38;;;-0.90;99.90;;;;;;5080055;28;20350;-30
2023/01/27 09:45:18;;;;;;;21.67;8.02;;;-0.90;99.90;;;;;;5086202;28;20031;-32
2023/01/27 09:47:43;;;;;;;21.25;8.07;;;-0.90;99.90;;;;;;5006100;28;20074;-30
2023/01/27 09:50:49;;;;;;;18.85;9.02;;;-0.90;99.90;;;;;;5089587;28;20493;-30
2023/01/27 09:53:33;;;;;;;22.67;8.70;;;-0.90;99.90;;;;;;4982351;28;20046;-29
2023/01/27 09:56:19;;;;;;;22.45;9.55;;;-0.90;99.90;;;;;;5077613;28;20119;-29
2023/01/27 09:58:59;;;;;;;19.13;8.52;;;-0.90;99.90;;;;;;5086862;28;20035;-30
2023/01/27 10:01:37;;;;;;;21.75;9.50;;;-0.90;99.90;;;;;;5079684;28;20131;-29
2023/01/27 10:04:08;;;;;;;15.80;6.73;;;-0.90;99.90;;;;;;5086213;28;20020;-30
2023/01/27 10:07:08;;;;;;;21.35;8.45;;;-0.90;99.90;;;;;;5086566;28;20032;-31
2023/01/27 10:10:01;;;;;;;18.23;8.20;;;-0.90;99.90;;;;;;5083257;28;20043;-30
2023/01/27 10:12:44;;;;;;;17.85;8.88;;;-0.90;99.90;;;;;;5084229;28;20038;-30
2023/01/27 10:15:13;;;;;;;19.83;8.50;;;-0.90;99.90;;;;;;5083068;28;20032;-31
2023/01/27 10:17:50;;;;;;;23.35;9.00;;;-0.80;99.90;;;;;;5083412;28;20447;-29
2023/01/27 10:20:24;;;;;;;20.00;8.63;;;-0.90;99.90;;;;;;5084851;28;20497;-32
2023/01/27 10:23:16;;;;;;;17.65;8.75;;;-0.90;99.90;;;;;;5082929;28;20352;-29
2023/01/27 10:26:07;;;;;;;23.95;10.55;;;-0.90;99.90;;;;;;5083786;28;20403;-30
2023/01/27 10:28:35;;;;;;;17.60;8.18;;;-0.80;99.90;;;;;;5070466;28;20474;-30
2023/01/27 10:31:10;;;;;;;18.98;8.10;;;-0.70;99.90;;;;;;5085863;28;20032;-31
2023/01/27 10:33:50;;;;;;;21.70;9.00;;;-0.70;99.90;;;;;;5088204;28;20481;-29
2023/01/27 10:36:47;;;;;;;21.83;7.65;;;-0.70;99.90;;;;;;5085482;28;20144;-29
2023/01/27 10:39:48;;;;;;;13.50;7.28;;;-0.70;99.90;;;;;;5087065;28;20088;-30
2023/01/27 10:42:32;;;;;;;22.73;7.95;;;-0.70;99.90;;;;;;5079991;28;20022;-29
2023/01/27 10:45:10;;;;;;;16.40;7.80;;;-0.60;99.90;;;;;;5076362;28;20481;-29
2023/01/27 10:47:47;;;;;;;18.38;8.63;;;-0.70;99.90;;;;;;5083561;28;20024;-29
2023/01/27 10:50:22;;;;;;;21.65;9.00;;;-0.70;99.90;;;;;;5085070;28;20026;-34
2023/01/27 10:53:00;;;;;;;14.88;7.15;;;-0.70;99.90;;;;;;5089979;28;20035;-31
2023/01/27 10:55:35;;;;;;;15.10;7.95;;;-0.70;99.90;;;;;;5068415;28;20465;-32
2023/01/27 10:58:28;;;;;;;13.93;7.05;;;-0.70;99.90;;;;;;5088092;28;20489;-30
2023/01/27 11:00:55;;;;;;;15.65;6.93;;;-0.70;99.90;;;;;;5076447;28;20047;-30
2023/01/27 11:03:26;;;;;;;13.48;7.20;;;-0.70;99.90;;;;;;5089256;28;20043;-30
2023/01/27 11:06:05;;;;;;;13.18;7.25;;;-0.80;99.90;;;;;;5082176;28;20112;-29
2023/01/27 11:08:35;;;;;;;15.85;8.15;;;-0.70;99.90;;;;;;5082416;28;20063;-34
2023/01/27 11:14:01;;;;;;;12.60;6.53;;;-0.70;99.90;;;;;;5085492;28;20043;-30
2023/01/27 11:16:34;;;;;;;15.63;6.75;;;-0.70;99.90;;;;;;5082743;28;20052;-29
2023/01/27 11:19:09;;;;;;;16.13;8.38;;;-0.70;99.90;;;;;;5083577;28;20085;-30
2023/01/27 11:21:35;;;;;;;18.30;8.05;;;-0.70;99.90;;;;;;5080963;28;20399;-29
2023/01/27 11:24:17;;;;;;;16.10;7.85;;;-0.70;99.90;;;;;;5083401;28;20024;-29
2023/01/27 11:26:51;;;;;;;16.25;7.30;;;-0.70;99.90;;;;;;5083885;28;20031;-29
2023/01/27 11:29:35;;;;;;;19.77;7.95;;;-0.70;99.90;;;;;;5089319;28;20493;-30
2023/01/27 11:32:19;;;;;;;18.67;7.15;;;-0.70;99.90;;;;;;5083878;28;20393;-29
2023/01/27 11:35:04;;;;;;;15.50;7.65;;;-0.70;99.90;;;;;;5085724;28;20039;-30
2023/01/27 11:37:42;;;;;;;16.88;7.30;;;-0.60;99.90;;;;;;5058388;28;20378;-32
2023/01/27 11:40:17;;;;;;;22.17;8.25;;;-0.70;99.90;;;;;;5060273;28;20066;-30
2023/01/27 11:42:43;;;;;;;14.25;7.72;;;-0.60;99.90;;;;;;5069806;28;20038;-30
2023/01/27 11:45:18;;;;;;;20.70;9.20;;;-0.60;99.90;;;;;;5085937;28;20085;-30
2023/01/27 11:47:47;;;;;;;20.23;8.57;;;-0.60;99.90;;;;;;5084250;28;20516;-30
2023/01/27 11:50:16;;;;;;;17.45;8.15;;;-0.60;99.90;;;;;;5086812;28;20418;-33
2023/01/27 11:52:45;;;;;;;12.63;6.55;;;-0.60;99.90;;;;;;5084049;28;20111;-30
2023/01/27 11:55:16;;;;;;;13.40;7.28;;;-0.60;99.90;;;;;;5089684;28;20134;-29
2023/01/27 11:57:45;;;;;;;20.23;9.00;;;-0.60;99.90;;;;;;5080526;28;20036;-30
2023/01/27 12:00:25;;;;;;;14.10;8.00;;;-0.60;99.90;;;;;;5080344;28;20028;-29
2023/01/27 12:03:02;;;;;;;18.05;7.78;;;-0.50;99.90;;;;;;5079079;28;20037;-29
2023/01/27 12:05:33;;;;;;;16.00;7.95;;;-0.50;99.90;;;;;;5084884;28;20040;-30
2023/01/27 12:08:01;;;;;;;18.08;7.97;;;-0.50;99.90;;;;;;5079388;28;20029;-32
2023/01/27 12:10:43;;;;;;;17.95;8.88;;;-0.50;99.90;;;;;;5064139;28;20028;-29
2023/01/27 12:13:19;;;;;;;18.70;7.85;;;-0.50;99.90;;;;;;5059347;28;20442;-30
2023/01/27 12:16:03;;;;;;;16.60;7.53;;;-0.50;99.90;;;;;;5058600;28;20032;-30
2023/01/27 12:18:33;;;;;;;15.32;7.55;;;-0.60;99.90;;;;;;5061889;28;20025;-30
2023/01/27 12:21:05;;;;;;;17.30;8.15;;;-0.60;99.90;;;;;;5060664;28;20077;-29
2023/01/27 12:23:48;;;;;;;18.95;8.65;;;-0.60;99.90;;;;;;5057700;28;20028;-30
2023/01/27 12:26:14;;;;;;;15.05;7.03;;;-0.50;99.90;;;;;;5060620;28;20021;-29
2023/01/27 12:28:51;;;;;;;19.58;8.10;;;-0.50;99.90;;;;;;5061462;28;20036;-29
2023/01/27 12:31:23;;;;;;;16.75;7.63;;;-0.50;99.90;;;;;;5062947;28;20029;-29
2023/01/27 12:34:26;;;;;;;14.43;8.43;;;-0.50;99.90;;;;;;5062569;28;20561;-29
2023/01/27 12:36:53;;;;;;;17.38;7.78;;;-0.50;99.90;;;;;;5052876;28;20032;-30
2023/01/27 12:39:37;;;;;;;15.80;7.70;;;-0.50;99.90;;;;;;5059851;28;20020;-29
2023/01/27 12:42:03;;;;;;;21.33;8.70;;;-0.50;99.90;;;;;;5061966;28;20032;-30
2023/01/27 12:44:41;;;;;;;17.80;8.18;;;-0.50;99.90;;;;;;5062415;28;20022;-30
2023/01/27 12:47:25;;;;;;;14.23;7.53;;;-0.50;99.90;;;;;;5065325;28;20066;-30
2023/01/27 12:49:51;;;;;;;19.48;9.70;;;-0.50;99.90;;;;;;5063697;28;20044;-29
2023/01/27 12:52:20;;;;;;;19.67;8.32;;;-0.40;99.90;;;;;;5062048;28;20811;-29
2023/01/27 12:54:46;;;;;;;15.73;8.45;;;-0.50;99.90;;;;;;5065869;28;20036;-30
2023/01/27 12:57:19;;;;;;;21.30;9.55;;;-0.50;99.90;;;;;;5056146;28;20025;-29
2023/01/27 12:59:51;;;;;;;17.17;8.15;;;-0.40;99.90;;;;;;5060952;28;20047;-29
2023/01/27 13:02:22;;;;;;;20.85;8.23;;;-0.50;99.90;;;;;;5059406;28;20031;-29
2023/01/27 13:04:54;;;;;;;19.58;8.45;;;-0.40;99.90;;;;;;5043948;28;20520;-33
2023/01/27 13:07:27;;;;;;;18.65;9.00;;;-0.50;99.90;;;;;;5061925;28;20502;-30
2023/01/27 13:10:15;;;;;;;17.55;8.00;;;-0.50;99.90;;;;;;5063262;28;20094;-36
2023/01/27 13:13:00;;;;;;;16.23;7.40;;;-0.50;99.90;;;;;;5044739;28;20466;-33
2023/01/27 13:15:29;;;;;;;19.63;8.52;;;-0.50;99.90;;;;;;5058427;28;20064;-35
2023/01/27 13:17:59;;;;;;;23.40;8.88;;;-0.50;99.90;;;;;;5058893;28;20063;-33
2023/01/27 13:20:43;;;;;;;18.25;8.05;;;-0.50;99.90;;;;;;5061721;28;20022;-29